Time;durP1;ratioP1;P1;durP2;ratioP2;P2;SDS_P1;SDS_P2;PMS_P1;PMS_P2;Temp;Humidity;BMP_temperature;BMP_pressure;BME280_temperature;BME280_humidity;BME280_pressure;Samples;Min_cycle;Max_cycle;Signal;HPM_P1;HPM_P2
2022/05/14 00:01:03;;;;;;;16.95;4.63;;;;;;;14.36;95.16;101631.25;5079818;28;20044;-74
2022/05/14 00:03:31;;;;;;;16.25;4.88;;;;;;;14.38;95.16;101635.22;5079353;28;20052;-75
2022/05/14 00:06:00;;;;;;;15.13;4.85;;;;;;;14.37;93.77;101638.41;5087508;28;20040;-75
2022/05/14 00:08:28;;;;;;;15.57;4.95;;;;;;;14.33;93.74;101632.88;5076274;28;20499;-75
2022/05/14 00:13:40;;;;;;;16.80;4.32;;;;;;;14.23;93.86;101633.69;5075792;28;20059;-75
2022/05/14 00:16:09;;;;;;;12.20;4.80;;;;;;;14.21;94.34;101641.59;5081125;28;20362;-75
2022/05/14 00:18:36;;;;;;;11.23;4.85;;;;;;;14.14;95.17;101629.69;5081255;28;20047;-76
2022/05/14 00:21:03;;;;;;;13.95;4.88;;;;;;;14.11;95.24;101638.84;5074655;28;20056;-74
2022/05/14 00:23:31;;;;;;;13.52;4.38;;;;;;;14.05;96.41;101634.84;5081885;28;20044;-76
2022/05/14 00:25:57;;;;;;;16.17;5.25;;;;;;;14.02;95.97;101641.22;5079947;28;20044;-76
2022/05/14 00:28:24;;;;;;;14.15;4.82;;;;;;;13.97;98.11;101631.28;5081458;28;20047;-74
2022/05/14 00:30:50;;;;;;;21.80;5.30;;;;;;;13.91;98.41;101634.88;5078886;28;20080;-75
2022/05/14 00:33:17;;;;;;;14.15;4.85;;;;;;;13.86;97.97;101622.16;5077311;28;20048;-75
2022/05/14 00:35:44;;;;;;;14.75;5.50;;;;;;;13.84;98.20;101627.28;5076871;28;20082;-75
2022/05/14 00:38:11;;;;;;;12.43;4.72;;;;;;;13.81;98.99;101628.13;5080479;28;20135;-74
2022/05/14 00:40:54;;;;;;;16.00;5.85;;;;;;;13.79;99.97;101629.69;5077977;28;20114;-75
2022/05/14 00:43:22;;;;;;;15.68;4.85;;;;;;;13.74;99.81;101628.09;5083607;28;20058;-75
2022/05/14 00:45:55;;;;;;;13.63;5.22;;;;;;;13.68;99.59;101623.34;5071993;28;20156;-76
2022/05/14 00:48:25;;;;;;;13.85;5.45;;;;;;;13.62;100.00;101622.94;5083209;28;20068;-74
2022/05/14 00:50:55;;;;;;;17.23;5.80;;;;;;;13.64;99.83;101620.56;5073167;28;20044;-75
2022/05/14 00:53:26;;;;;;;13.05;4.85;;;;;;;13.63;100.00;101632.09;5074145;28;20044;-76
2022/05/14 00:55:55;;;;;;;15.57;5.20;;;;;;;13.55;99.90;101620.16;5101094;27;20047;-75
2022/05/14 00:58:40;;;;;;;11.93;4.47;;;;;;;13.45;100.00;101622.91;5085454;28;20052;-75
2022/05/14 01:01:07;;;;;;;14.25;6.07;;;;;;;13.34;100.00;101622.91;5077049;28;20048;-76
2022/05/14 01:03:33;;;;;;;16.58;5.07;;;;;;;13.30;100.00;101619.31;5074405;28;20040;-75
2022/05/14 01:06:03;;;;;;;19.30;5.93;;;;;;;13.29;100.00;101623.28;5078478;28;20051;-76
2022/05/14 01:08:30;;;;;;;11.75;5.20;;;;;;;13.33;100.00;101620.50;5076746;28;20075;-75
2022/05/14 01:10:57;;;;;;;14.65;5.32;;;;;;;13.33;100.00;101623.28;5077945;28;20084;-75
2022/05/14 01:13:25;;;;;;;16.08;5.07;;;;;;;13.34;100.00;101627.66;5073415;28;20052;-75
2022/05/14 01:15:56;;;;;;;14.38;5.43;;;;;;;13.29;100.00;101626.06;5081853;28;20442;-75
2022/05/14 01:18:24;;;;;;;13.57;5.80;;;;;;;13.22;100.00;101616.94;5078321;28;20229;-75
2022/05/14 01:20:59;;;;;;;15.55;5.75;;;;;;;13.11;100.00;101611.31;5083638;28;20508;-75
2022/05/14 01:26:29;;;;;;;24.23;6.45;;;;;;;13.01;100.00;101612.09;5080901;28;20127;-75
2022/05/14 01:28:57;;;;;;;21.23;5.75;;;;;;;13.03;100.00;101624.41;5078378;28;20475;-75
2022/05/14 01:31:24;;;;;;;13.75;5.57;;;;;;;12.97;100.00;101614.03;5075347;28;20054;-76
2022/05/14 01:33:51;;;;;;;15.77;5.88;;;;;;;12.94;100.00;101628.72;5080501;28;20052;-75
2022/05/14 01:36:17;;;;;;;16.85;6.30;;;;;;;12.93;100.00;101627.13;5072426;28;20570;-76
2022/05/14 01:38:44;;;;;;;12.18;5.05;;;;;;;12.94;100.00;101634.25;5075268;28;20508;-75
2022/05/14 01:41:11;;;;;;;15.07;5.70;;;;;;;12.94;100.00;101631.47;5080998;28;20059;-75
2022/05/14 01:43:38;;;;;;;14.70;6.50;;;;;;;12.92;100.00;101639.41;5074259;28;20440;-75
2022/05/14 01:46:05;;;;;;;19.67;5.28;;;;;;;12.85;100.00;101640.19;5076492;28;20419;-75
2022/05/14 01:48:32;;;;;;;17.92;6.35;;;;;;;12.80;100.00;101634.97;5079628;28;20109;-75
2022/05/14 01:50:59;;;;;;;16.27;5.65;;;;;;;12.71;100.00;101636.53;5080911;28;20062;-74
2022/05/14 01:53:26;;;;;;;19.75;6.22;;;;;;;12.66;100.00;101636.94;5075737;28;20112;-75
2022/05/14 01:55:53;;;;;;;15.35;5.95;;;;;;;12.66;100.00;101634.16;5097569;28;20058;-75
2022/05/14 01:58:37;;;;;;;17.13;6.55;;;;;;;12.65;100.00;101635.31;5080622;28;20063;-74
2022/05/14 02:01:21;;;;;;;15.85;6.57;;;;;;;12.65;100.00;101638.09;5082400;28;20051;-74
2022/05/14 02:03:56;;;;;;;17.02;6.03;;;;;;;12.60;100.00;101636.50;5086683;28;20052;-74
2022/05/14 02:06:27;;;;;;;16.80;6.82;;;;;;;12.58;100.00;101638.06;5089936;28;20048;-75
2022/05/14 02:08:55;;;;;;;16.85;7.53;;;;;;;12.55;100.00;101625.75;5084447;28;20052;-75
2022/05/14 02:11:22;;;;;;;21.27;6.85;;;;;;;12.55;100.00;101630.50;5085841;28;20737;-74
2022/05/14 02:13:51;;;;;;;20.42;7.28;;;;;;;12.51;100.00;101626.91;5083984;28;20056;-75
2022/05/14 02:16:18;;;;;;;16.90;6.53;;;;;;;12.51;100.00;101638.00;5082601;28;20453;-74
2022/05/14 02:18:45;;;;;;;23.60;6.00;;;;;;;12.51;100.00;101644.38;5080712;28;20446;-75
2022/05/14 02:21:12;;;;;;;16.15;6.15;;;;;;;12.47;100.00;101640.78;5087190;28;20047;-75
2022/05/14 02:23:39;;;;;;;20.13;7.78;;;;;;;12.47;100.00;101634.44;5090002;28;20064;-77
2022/05/14 02:26:08;;;;;;;18.08;7.03;;;;;;;12.45;100.00;101631.22;5084778;28;20051;-76
2022/05/14 02:28:35;;;;;;;14.05;5.78;;;;;;;12.44;100.00;101632.44;5085385;28;20063;-74
2022/05/14 02:31:03;;;;;;;14.40;6.25;;;;;;;12.43;100.00;101634.41;5080819;28;20086;-74
2022/05/14 02:33:29;;;;;;;16.30;7.35;;;;;;;12.39;100.00;101627.25;5085188;28;20052;-75
2022/05/14 02:35:57;;;;;;;20.55;7.32;;;;;;;12.42;100.00;101634.81;5075519;28;20076;-75
2022/05/14 02:38:25;;;;;;;19.30;7.30;;;;;;;12.38;100.00;101625.66;5076004;28;20047;-76
2022/05/14 02:40:51;;;;;;;17.17;7.25;;;;;;;12.34;100.00;101630.38;5081064;28;20135;-75
2022/05/14 02:43:18;;;;;;;12.77;6.05;;;;;;;12.32;100.00;101641.09;5078192;28;20135;-75
2022/05/14 02:45:44;;;;;;;17.85;7.20;;;;;;;12.16;100.00;101648.91;5081189;28;20148;-75
2022/05/14 02:48:11;;;;;;;16.13;7.15;;;;;;;12.16;100.00;101646.94;5077889;28;20071;-74
2022/05/14 02:50:38;;;;;;;18.88;6.32;;;;;;;12.16;100.00;101644.16;5080115;28;20075;-76
2022/05/14 02:53:05;;;;;;;16.98;7.13;;;;;;;12.05;100.00;101640.50;5070820;28;20048;-74
2022/05/14 02:55:32;;;;;;;15.32;7.57;;;;;;;11.91;100.00;101643.16;5086297;28;20132;-74
2022/05/14 02:57:58;;;;;;;16.75;7.40;;;;;;;11.87;100.00;101642.34;5076807;28;20043;-74
2022/05/14 03:00:25;;;;;;;20.13;7.50;;;;;;;11.88;100.00;101649.47;5073415;28;20509;-74
2022/05/14 03:02:52;;;;;;;19.90;8.73;;;;;;;11.83;100.00;101649.03;5083654;28;20143;-74
2022/05/14 03:05:21;;;;;;;22.55;8.75;;;;;;;11.89;100.00;101647.50;5082734;28;20044;-75
2022/05/14 03:07:48;;;;;;;22.00;8.77;;;;;;;11.94;100.00;101644.34;5088927;28;20047;-73
2022/05/14 03:10:16;;;;;;;13.68;7.30;;;;;;;11.94;100.00;101644.34;5082992;28;20051;-73
2022/05/14 03:12:43;;;;;;;18.48;8.35;;;;;;;11.92;100.00;101635.63;5075052;28;20056;-74
2022/05/14 03:15:11;;;;;;;17.92;7.28;;;;;;;11.91;100.00;101634.84;5070227;28;20087;-74
2022/05/14 03:17:38;;;;;;;16.60;8.00;;;;;;;11.93;100.00;101640.00;5076461;28;20051;-75
2022/05/14 03:20:08;;;;;;;19.50;8.20;;;;;;;11.89;100.00;101645.53;5076063;28;20131;-74
2022/05/14 03:22:36;;;;;;;23.88;8.60;;;;;;;11.77;100.00;101642.22;5077145;28;20056;-75
2022/05/14 03:25:05;;;;;;;19.75;8.20;;;;;;;11.73;100.00;101636.69;5080405;28;20130;-73
2022/05/14 03:27:32;;;;;;;18.98;9.23;;;;;;;11.75;100.00;101633.53;5078161;28;20456;-73
2022/05/14 03:29:58;;;;;;;21.02;9.63;;;;;;;11.75;100.00;101639.84;5078627;28;20053;-75
2022/05/14 03:32:26;;;;;;;19.00;7.90;;;;;;;11.82;100.00;101639.13;5078063;28;20087;-75
2022/05/14 03:34:58;;;;;;;20.27;8.45;;;;;;;11.87;100.00;101641.53;5078891;28;20459;-75
2022/05/14 03:37:25;;;;;;;18.70;8.43;;;;;;;11.90;100.00;101641.56;5077984;28;20048;-75
2022/05/14 03:39:51;;;;;;;18.25;8.52;;;;;;;11.90;100.00;101640.75;5087085;28;20127;-74
2022/05/14 03:42:18;;;;;;;20.90;9.43;;;;;;;11.84;100.00;101643.09;5075724;28;20044;-74
2022/05/14 03:44:46;;;;;;;19.67;10.00;;;;;;;11.87;100.00;101642.34;5085146;28;20048;-74
2022/05/14 03:47:13;;;;;;;21.33;8.82;;;;;;;11.90;100.00;101643.53;5074465;28;20720;-74
2022/05/14 03:49:40;;;;;;;20.48;9.75;;;;;;;11.89;100.00;101636.41;5083715;28;20052;-75
2022/05/14 03:52:07;;;;;;;20.67;10.00;;;;;;;11.85;100.00;101644.69;5078142;28;20052;-74
2022/05/14 03:54:34;;;;;;;22.90;9.20;;;;;;;11.80;100.00;101641.47;5082896;28;20052;-76
2022/05/14 03:57:01;;;;;;;19.25;8.38;;;;;;;11.76;100.00;101640.66;5088640;28;20051;-75
2022/05/14 03:59:28;;;;;;;23.13;9.02;;;;;;;11.72;100.00;101640.63;5077810;28;20054;-75
2022/05/14 04:01:54;;;;;;;24.17;9.43;;;;;;;11.74;100.00;101635.47;5077976;28;20052;-75
2022/05/14 04:04:21;;;;;;;19.75;8.98;;;;;;;11.74;100.00;101640.25;5083380;28;20058;-74
2022/05/14 04:06:47;;;;;;;21.58;9.60;;;;;;;11.68;100.00;101639.78;5079933;28;20048;-76
2022/05/14 04:09:14;;;;;;;19.67;8.50;;;;;;;11.68;100.00;101645.31;5084633;28;20066;-75
2022/05/14 04:11:40;;;;;;;20.65;9.15;;;;;;;11.70;100.00;101640.22;5081067;28;20167;-74
2022/05/14 04:14:07;;;;;;;26.00;10.07;;;;;;;11.76;100.00;101644.22;5082452;28;20058;-74
2022/05/14 04:16:34;;;;;;;20.38;9.25;;;;;;;11.86;100.00;101653.81;5082736;28;20067;-74
2022/05/14 04:19:01;;;;;;;23.50;11.82;;;;;;;11.97;100.00;101658.28;5085934;28;20158;-74
2022/05/14 04:21:28;;;;;;;21.83;10.50;;;;;;;12.05;100.00;101656.34;5075253;28;20044;-74
2022/05/14 04:23:55;;;;;;;24.10;10.15;;;;;;;12.06;100.00;101652.41;5071401;28;20049;-76
2022/05/14 04:26:24;;;;;;;22.13;9.30;;;;;;;11.99;100.00;101660.66;5079325;28;20410;-75
2022/05/14 04:28:50;;;;;;;21.88;10.13;;;;;;;11.91;100.00;101659.03;5084957;28;20087;-76
2022/05/14 04:31:18;;;;;;;24.83;9.73;;;;;;;11.83;100.00;101657.34;5080755;28;20044;-75
2022/05/14 04:33:44;;;;;;;22.85;9.20;;;;;;;11.86;100.00;101662.94;5080533;28;20576;-75
2022/05/14 04:36:12;;;;;;;22.42;9.90;;;;;;;11.96;100.00;101680.84;5080681;28;20048;-75
2022/05/14 04:38:38;;;;;;;20.05;10.75;;;;;;;12.05;100.00;101681.31;5074804;28;20076;-75
2022/05/14 04:41:05;;;;;;;18.35;8.90;;;;;;;12.08;100.00;101686.88;5083278;28;20091;-76
2022/05/14 04:43:32;;;;;;;20.50;9.57;;;;;;;12.04;100.00;101672.19;5073113;28;20058;-75
2022/05/14 04:45:59;;;;;;;20.10;9.05;;;;;;;12.01;100.00;101684.06;5068610;28;20401;-78
2022/05/14 04:48:26;;;;;;;21.90;9.55;;;;;;;12.05;100.00;101681.31;5069154;28;20044;-75
2022/05/14 04:50:54;;;;;;;19.45;9.13;;;;;;;12.12;100.00;101686.94;5080290;28;20053;-75
2022/05/14 04:53:20;;;;;;;21.33;8.52;;;;;;;12.21;100.00;101688.19;5079144;28;20149;-74
2022/05/14 04:55:49;;;;;;;19.83;8.40;;;;;;;12.32;100.00;101699.38;5081272;28;20528;-75
2022/05/14 04:58:16;;;;;;;21.10;8.23;;;;;;;12.38;100.00;101690.28;5077596;28;20056;-75
2022/05/14 05:00:44;;;;;;;21.20;8.10;;;;;;;12.34;100.00;101683.13;5075145;28;20140;-75
2022/05/14 05:03:17;;;;;;;22.95;9.23;;;;;;;12.38;100.00;101683.94;5079683;28;20063;-74
2022/05/14 05:05:58;;;;;;;18.67;8.32;;;;;;;12.51;100.00;101701.88;5086075;28;20101;-76
2022/05/14 05:08:29;;;;;;;18.92;8.15;;;;;;;12.60;100.00;101705.09;5081344;28;20048;-75
2022/05/14 05:10:57;;;;;;;18.25;8.48;;;;;;;12.70;100.00;101705.16;5087046;28;20581;-74
2022/05/14 05:13:28;;;;;;;20.83;8.63;;;;;;;12.77;100.00;101709.97;5065329;28;20044;-75
2022/05/14 05:15:54;;;;;;;13.95;6.13;;;;;;;12.81;100.00;101719.91;5083357;28;20087;-75
2022/05/14 05:18:21;;;;;;;22.05;8.00;;;;;;;12.78;100.00;101720.69;5080252;28;20052;-75
2022/05/14 05:20:49;;;;;;;17.10;6.85;;;;;;;12.81;100.00;101711.59;5078316;28;20373;-75
2022/05/14 05:23:19;;;;;;;20.70;7.05;;;;;;;12.86;100.00;101713.22;5074509;28;20101;-75
2022/05/14 05:25:46;;;;;;;19.02;6.78;;;;;;;12.83;100.00;101716.75;5072124;28;20079;-75
2022/05/14 05:28:13;;;;;;;18.85;7.18;;;;;;;12.90;100.00;101717.56;5075779;28;20056;-76
2022/05/14 05:30:40;;;;;;;16.77;6.10;;;;;;;12.89;100.00;101720.72;5074080;28;20063;-75
2022/05/14 05:33:16;;;;;;;16.92;6.95;;;;;;;12.97;100.00;101723.16;5078318;28;20136;-76
2022/05/14 05:35:43;;;;;;;18.73;6.82;;;;;;;12.96;100.00;101734.66;5075199;28;20051;-76
2022/05/14 05:38:10;;;;;;;17.58;5.90;;;;;;;12.91;100.00;101718.38;5084014;28;20126;-76
2022/05/14 05:40:37;;;;;;;14.43;6.15;;;;;;;12.97;100.00;101728.72;5073163;28;20126;-76
2022/05/14 05:43:06;;;;;;;16.25;6.22;;;;;;;12.99;100.00;101715.28;5080590;28;20138;-75
2022/05/14 05:45:33;;;;;;;24.45;6.57;;;;;;;13.11;100.00;101708.59;5078258;28;20509;-76
2022/05/14 05:48:00;;;;;;;16.00;6.80;;;;;;;13.17;100.00;101715.38;5091750;28;20455;-76
2022/05/14 05:50:26;;;;;;;16.67;5.97;;;;;;;13.21;100.00;101718.94;5071260;28;20053;-76
2022/05/14 05:52:54;;;;;;;8.55;3.45;;;;;;;13.18;100.00;101716.13;5072243;28;20134;-76
2022/05/14 05:58:07;;;;;;;13.50;3.47;;;;;;;13.29;100.00;101730.91;5076910;28;20151;-77
2022/05/14 06:00:34;;;;;;;5.25;2.00;;;;;;;13.30;100.00;101724.94;5077416;28;20569;-76
2022/05/14 06:03:00;;;;;;;11.93;4.72;;;;;;;13.33;100.00;101724.13;5077547;28;20135;-75
2022/05/14 06:05:27;;;;;;;4.65;1.92;;;;;;;13.42;100.00;101727.34;5085117;28;20847;-75
2022/05/14 06:07:54;;;;;;;17.75;6.40;;;;;;;13.53;100.00;101730.19;5078499;28;20048;-76
2022/05/14 06:10:23;;;;;;;19.92;6.60;;;;;;;13.63;100.00;101732.19;5087849;28;20048;-75
2022/05/14 06:12:50;;;;;;;18.05;5.88;;;;;;;13.69;100.00;101723.06;5079355;28;20489;-75
2022/05/14 06:15:19;;;;;;;15.45;5.35;;;;;;;13.76;100.00;101738.97;5079440;28;20140;-75
2022/05/14 06:17:49;;;;;;;9.65;2.67;;;;;;;13.70;100.00;101730.22;5070683;28;20044;-77
2022/05/14 06:20:17;;;;;;;20.27;5.88;;;;;;;13.77;100.00;101726.66;5077275;28;20080;-77
2022/05/14 06:22:44;;;;;;;4.63;2.03;;;;;;;13.77;100.00;101735.00;5074437;28;20052;-76
2022/05/14 06:25:12;;;;;;;18.02;5.25;;;;;;;13.85;100.00;101734.63;5067702;28;20599;-76
2022/05/14 06:27:40;;;;;;;17.67;5.32;;;;;;;13.93;100.00;101743.75;5076536;28;20060;-76
2022/05/14 06:30:07;;;;;;;24.05;6.45;;;;;;;14.00;98.86;101743.78;5083641;28;20052;-76
2022/05/14 06:32:36;;;;;;;14.68;4.25;;;;;;;14.07;96.95;101752.91;5072550;28;20107;-78
2022/05/14 06:35:05;;;;;;;6.55;2.65;;;;;;;14.04;96.13;101745.38;5076426;28;20587;-76
2022/05/14 06:37:31;;;;;;;20.17;4.85;;;;;;;14.14;96.55;101747.34;5084264;28;20139;-76
2022/05/14 06:39:58;;;;;;;13.95;5.30;;;;;;;14.31;96.92;101754.97;5084257;28;20067;-78
2022/05/14 06:42:25;;;;;;;17.05;5.70;;;;;;;14.32;96.65;101752.97;5079382;28;20132;-76
2022/05/14 06:44:51;;;;;;;8.25;3.45;;;;;;;14.38;96.16;101746.59;5084156;28;20040;-76
2022/05/14 06:47:18;;;;;;;13.88;5.30;;;;;;;14.54;95.83;101754.53;5074491;28;20036;-77
2022/05/14 06:49:45;;;;;;;4.57;1.63;;;;;;;14.52;94.27;101760.50;5087816;28;20431;-77
2022/05/14 06:52:15;;;;;;;3.90;1.45;;;;;;;14.52;93.36;101763.28;5089270;28;20527;-77
2022/05/14 06:54:45;;;;;;;16.30;5.32;;;;;;;14.70;92.93;101758.53;5088177;28;20122;-76
2022/05/14 06:57:13;;;;;;;17.75;5.38;;;;;;;14.80;93.10;101754.91;5084262;28;20131;-75
2022/05/14 06:59:39;;;;;;;3.50;1.50;;;;;;;14.77;92.33;101757.69;5085192;28;20067;-75
2022/05/14 07:02:09;;;;;;;16.40;5.35;;;;;;;14.91;92.61;101752.91;5077842;28;20516;-77
2022/05/14 07:07:21;;;;;;;12.25;4.22;;;;;;;15.02;91.69;101756.44;5080856;28;20129;-78
2022/05/14 07:09:49;;;;;;;13.07;4.38;;;;;;;15.13;90.18;101748.84;5086184;28;20087;-76
2022/05/14 07:12:16;;;;;;;21.38;6.70;;;;;;;15.34;91.01;101751.56;5085122;28;20072;-76
2022/05/14 07:14:44;;;;;;;27.13;7.13;;;;;;;15.47;90.16;101757.50;5085728;28;20056;-76
2022/05/14 07:17:11;;;;;;;19.23;5.70;;;;;;;15.61;89.55;101760.22;5073449;28;20495;-75
2022/05/14 07:19:39;;;;;;;11.48;3.97;;;;;;;15.53;88.33;101758.69;5073239;28;20052;-76
2022/05/14 07:22:06;;;;;;;17.35;5.10;;;;;;;15.67;89.08;101749.44;5079146;28;20156;-72
2022/05/14 07:24:33;;;;;;;17.92;5.82;;;;;;;15.83;87.16;101758.91;5078218;28;21414;-75
2022/05/14 07:27:03;;;;;;;19.92;6.43;;;;;;;15.85;86.21;101767.66;5079612;28;20059;-75
2022/05/14 07:29:30;;;;;;;11.30;3.92;;;;;;;15.90;85.72;101763.66;5073705;28;20523;-78
2022/05/14 07:31:57;;;;;;;18.48;5.07;;;;;;;15.99;85.82;101759.19;5088299;28;20198;-78
2022/05/14 07:34:25;;;;;;;8.80;2.90;;;;;;;16.01;85.26;101758.78;5078402;28;20053;-75
2022/05/14 07:36:58;;;;;;;3.97;2.17;;;;;;;15.93;84.62;101757.25;5085370;28;20048;-78
2022/05/14 07:39:30;;;;;;;14.70;5.28;;;;;;;15.99;84.71;101755.63;5085564;28;20114;-76
2022/05/14 07:41:59;;;;;;;19.48;6.00;;;;;;;16.11;85.06;101752.34;5073770;28;20044;-74
2022/05/14 07:44:30;;;;;;;19.73;6.22;;;;;;;16.20;84.07;101738.72;5082823;28;20529;-78
2022/05/14 07:46:57;;;;;;;20.08;5.93;;;;;;;16.24;83.87;101750.66;5075870;28;20540;-76
2022/05/14 07:49:25;;;;;;;19.85;5.63;;;;;;;16.38;85.92;101758.91;5086636;28;20047;-76
2022/05/14 07:51:54;;;;;;;11.23;3.50;;;;;;;16.39;82.78;101768.88;5082496;28;20087;-76
2022/05/14 07:54:23;;;;;;;19.20;5.30;;;;;;;16.39;83.14;101754.91;5078611;28;20076;-76
2022/05/14 07:56:50;;;;;;;21.88;6.50;;;;;;;16.43;82.24;101750.91;5083198;28;20071;-78
2022/05/14 07:59:17;;;;;;;20.88;5.63;;;;;;;16.52;82.45;101753.22;5081295;28;20056;-77
2022/05/14 08:01:43;;;;;;;16.83;5.22;;;;;;;16.54;82.58;101753.63;5080067;28;20052;-75
2022/05/14 08:04:10;;;;;;;18.00;4.22;;;;;;;16.48;81.61;101760.84;5085352;28;20046;-77
2022/05/14 08:06:37;;;;;;;20.20;6.25;;;;;;;16.63;81.71;101771.47;5083894;28;20508;-76
2022/05/14 08:09:04;;;;;;;13.93;4.90;;;;;;;16.65;81.44;101769.09;5088522;28;20044;-76
2022/05/14 08:11:32;;;;;;;23.83;7.53;;;;;;;16.82;80.92;101767.31;5083942;28;20166;-77
2022/05/14 08:13:59;;;;;;;17.38;4.07;;;;;;;16.79;80.83;101765.34;5080082;28;20500;-76
2022/05/14 08:16:26;;;;;;;26.33;7.05;;;;;;;16.91;80.13;101746.03;5075527;28;20505;-77
2022/05/14 08:18:53;;;;;;;23.25;8.35;;;;;;;17.05;80.82;101753.50;5089393;28;20506;-78
2022/05/14 08:24:30;;;;;;;12.15;3.53;;;;;;;17.10;79.94;101756.63;5081062;28;21099;-77
2022/05/14 08:27:01;;;;;;;;;;;;;;;17.26;79.95;101750.44;5079657;28;20451;-78
2022/05/14 08:29:27;;;;;;;12.95;3.58;;;;;;;17.18;79.20;101748.94;5072536;28;19931;-79
2022/05/14 08:31:54;;;;;;;20.98;5.88;;;;;;;17.32;79.02;101746.75;5082228;28;20090;-77
2022/05/14 08:34:20;;;;;;;25.92;7.38;;;;;;;17.52;79.70;101752.53;5077941;28;20072;-76
2022/05/14 08:36:47;;;;;;;24.33;7.03;;;;;;;17.70;78.29;101747.50;5080009;28;20052;-75
2022/05/14 08:39:15;;;;;;;8.77;2.75;;;;;;;17.57;77.66;101746.47;5070440;28;20131;-79
2022/05/14 08:41:44;;;;;;;24.75;8.15;;;;;;;17.86;76.54;101748.44;5072839;28;20171;-76
2022/05/14 08:44:34;;;;;;;15.95;3.35;;;;;;;17.68;75.65;101755.50;5080556;28;20132;-76
2022/05/14 08:47:06;;;;;;;12.45;2.92;;;;;;;17.74;75.36;101751.84;5082740;28;20473;-77
2022/05/14 08:49:43;;;;;;;5.82;2.58;;;;;;;17.83;74.22;101746.47;5073245;28;20084;-77
2022/05/14 08:52:14;;;;;;;21.85;5.22;;;;;;;17.96;74.79;101747.50;5069619;28;20162;-77
2022/05/14 08:54:41;;;;;;;10.05;3.88;;;;;;;18.17;75.54;101752.00;5068427;28;20108;-72
2022/05/14 08:57:24;;;;;;;14.23;3.35;;;;;;;18.02;73.13;101765.41;5069988;28;21020;-73
2022/05/14 08:59:55;;;;;;;22.65;6.50;;;;;;;18.45;74.75;101754.34;5071181;28;20048;-74
2022/05/14 09:02:22;;;;;;;23.23;7.22;;;;;;;18.54;72.96;101749.00;5068720;28;20126;-74
2022/05/14 09:04:50;;;;;;;20.05;5.85;;;;;;;18.66;73.39;101742.75;5069503;28;20386;-72
2022/05/14 09:07:17;;;;;;;10.38;2.92;;;;;;;18.52;73.32;101745.03;5067540;28;20040;-74
2022/05/14 09:09:52;;;;;;;20.50;6.45;;;;;;;18.73;73.90;101751.03;5068776;28;20139;-73
2022/05/14 09:12:23;;;;;;;17.42;5.40;;;;;;;18.67;72.78;101743.56;5069007;28;20102;-73
2022/05/14 09:14:58;;;;;;;25.02;6.30;;;;;;;18.83;73.40;101747.25;5074210;28;20044;-76
2022/05/14 09:17:29;;;;;;;21.95;5.97;;;;;;;18.91;70.41;101742.31;5083688;28;20112;-78
2022/05/14 09:19:57;;;;;;;19.48;5.82;;;;;;;19.16;71.06;101742.59;5080804;28;20451;-77
2022/05/14 09:22:52;;;;;;;20.45;6.38;;;;;;;19.22;68.07;101741.69;5077450;28;20236;-77
2022/05/14 09:25:25;;;;;;;15.05;4.32;;;;;;;18.99;68.72;101750.16;5073385;28;20111;-76
2022/05/14 09:27:59;;;;;;;23.90;7.45;;;;;;;19.32;69.77;101740.69;5076182;28;20046;-77
2022/05/14 09:30:32;;;;;;;12.35;2.75;;;;;;;19.32;67.80;101737.91;5084665;28;20052;-76
2022/05/14 09:32:59;;;;;;;21.88;6.82;;;;;;;19.45;67.00;101730.41;5077260;28;20139;-74
2022/05/14 09:35:29;;;;;;;18.40;7.43;;;;;;;19.63;66.40;101744.03;5081841;28;20044;-73
2022/05/14 09:38:17;;;;;;;15.70;5.38;;;;;;;19.86;65.87;101729.88;5067988;28;20062;-74
2022/05/14 09:40:51;;;;;;;21.58;6.22;;;;;;;20.10;64.75;101729.28;5070574;28;20047;-73
2022/05/14 09:43:18;;;;;;;21.58;6.30;;;;;;;20.27;64.40;101727.28;5077857;28;20518;-73
2022/05/14 09:45:57;;;;;;;18.42;5.63;;;;;;;20.35;62.57;101732.31;5067528;28;20078;-72
2022/05/14 09:48:50;;;;;;;14.02;4.25;;;;;;;20.11;63.33;101730.91;5064258;28;20120;-72
2022/05/14 09:51:46;;;;;;;22.08;6.85;;;;;;;20.24;60.63;101730.97;5058355;28;20048;-75
2022/05/14 09:54:18;;;;;;;20.45;6.18;;;;;;;20.20;60.43;101735.91;5056930;28;20062;-78
2022/05/14 09:57:22;;;;;;;13.98;4.75;;;;;;;20.42;62.39;101729.31;5060847;28;20189;-77
2022/05/14 10:00:08;;;;;;;16.77;5.05;;;;;;;20.64;60.54;101732.34;5064179;28;20052;-77
2022/05/14 10:02:53;;;;;;;;;;;;;;;20.56;59.03;101733.78;5079765;28;20055;-78
2022/05/14 10:05:41;;;;;;;17.05;5.38;;;;;;;20.40;59.32;101739.41;5079295;28;20005;-78
2022/05/14 10:08:29;;;;;;;18.67;5.28;;;;;;;20.68;57.25;101730.22;5065573;28;20136;-79
2022/05/14 10:10:59;;;;;;;14.13;4.43;;;;;;;20.91;56.05;101735.63;5062750;28;20106;-78
2022/05/14 10:13:34;;;;;;;13.88;4.15;;;;;;;21.04;56.68;101730.09;5069007;28;20083;-82
2022/05/14 10:16:11;;;;;;;19.90;4.97;;;;;;;21.21;55.63;101728.78;5066974;28;20104;-80
2022/05/14 10:18:44;;;;;;;22.95;5.65;;;;;;;21.40;54.53;101733.47;5065359;28;20566;-78
2022/05/14 10:21:13;;;;;;;22.67;4.70;;;;;;;21.78;54.34;101735.13;5062792;28;20040;-82
2022/05/14 10:27:27;;;;;;;;;;;;;;;22.16;51.45;101735.09;5068167;28;20048;-77
2022/05/14 10:30:00;;;;;;;;;;;;;;;21.75;51.89;101735.22;5065165;28;19928;-78
2022/05/14 10:32:30;;;;;;;14.60;4.43;;;;;;;22.00;52.38;101735.25;5070054;28;20011;-76
2022/05/14 10:35:17;;;;;;;20.88;6.68;;;;;;;21.83;51.20;101731.75;5068258;28;20539;-76
2022/05/14 10:38:20;;;;;;;16.67;5.72;;;;;;;21.99;50.87;101725.19;5068328;28;20044;-76
2022/05/14 10:40:53;;;;;;;18.73;6.20;;;;;;;22.57;51.59;101730.09;5076061;28;20044;-78
2022/05/14 10:43:40;;;;;;;6.72;2.63;;;;;;;22.17;49.17;101731.84;5082791;28;20079;-77
2022/05/14 10:46:11;;;;;;;20.23;6.35;;;;;;;22.29;49.95;101741.53;5082465;28;20052;-77
2022/05/14 10:48:59;;;;;;;20.08;6.20;;;;;;;22.49;50.05;101744.91;5068230;28;20052;-77
2022/05/14 10:51:30;;;;;;;24.75;7.40;;;;;;;22.87;50.29;101733.53;5084394;28;20056;-78
2022/05/14 10:54:00;;;;;;;20.25;6.88;;;;;;;22.64;46.96;101745.97;5083077;28;20110;-77
2022/05/14 10:56:38;;;;;;;14.65;5.45;;;;;;;22.65;47.24;101744.75;5075248;28;20457;-77
2022/05/14 10:59:10;;;;;;;21.38;6.53;;;;;;;22.92;47.65;101733.72;5078576;28;20123;-77
2022/05/14 11:01:52;;;;;;;19.17;6.60;;;;;;;23.22;45.58;101735.84;5085985;28;20139;-76
2022/05/14 11:04:27;;;;;;;19.40;5.95;;;;;;;23.01;45.10;101730.19;5080036;28;20060;-77
2022/05/14 11:07:01;;;;;;;18.65;7.15;;;;;;;23.12;46.41;101733.41;5079222;28;20432;-77
2022/05/14 11:09:34;;;;;;;11.07;4.05;;;;;;;22.90;47.02;101741.84;5074113;28;20152;-77
2022/05/14 11:12:04;;;;;;;25.65;7.68;;;;;;;22.99;47.63;101733.47;5081266;28;20079;-76
2022/05/14 11:14:51;;;;;;;24.83;8.32;;;;;;;23.48;46.58;101736.50;5087937;28;20056;-79
2022/05/14 11:17:23;;;;;;;21.17;7.85;;;;;;;23.78;45.91;101733.69;5070887;28;20076;-76
2022/05/14 11:20:07;;;;;;;20.98;9.57;;;;;;;24.07;44.83;101736.19;5079714;28;20062;-77
2022/05/14 11:22:35;;;;;;;21.27;8.25;;;;;;;23.42;43.75;101739.13;5085595;28;20052;-78
2022/05/14 11:25:31;;;;;;;21.60;7.97;;;;;;;23.56;44.94;101721.66;5079320;28;20837;-75
2022/05/14 11:28:16;;;;;;;20.42;8.02;;;;;;;23.22;44.68;101729.41;5076752;28;20101;-76
2022/05/14 11:30:54;;;;;;;22.45;8.45;;;;;;;23.20;44.79;101724.22;5079971;28;20633;-78
2022/05/14 11:33:32;;;;;;;23.35;8.50;;;;;;;23.34;44.45;101726.53;5084185;28;20044;-75
2022/05/14 11:36:24;;;;;;;22.83;8.15;;;;;;;23.74;44.90;101732.25;5074717;28;20131;-75
2022/05/14 11:39:24;;;;;;;20.67;8.00;;;;;;;23.83;42.64;101726.63;5085682;28;20532;-76
2022/05/14 11:41:54;;;;;;;19.30;7.57;;;;;;;24.13;41.40;101725.84;5073116;28;20112;-74
2022/05/14 11:44:35;;;;;;;16.83;6.95;;;;;;;24.05;42.46;101725.34;5073969;28;20048;-74
2022/05/14 11:47:02;;;;;;;16.15;7.28;;;;;;;24.26;42.33;101732.94;5081017;28;20105;-75